Time;durP1;ratioP1;P1;durP2;ratioP2;P2;SDS_P1;SDS_P2;PMS_P1;PMS_P2;Temp;Humidity;BMP_temperature;BMP_pressure;BME280_temperature;BME280_humidity;BME280_pressure;Samples;Min_cycle;Max_cycle;Signal;HPM_P1;HPM_P2
2023/12/21 00:01:36;;;;;;;7.45;1.52;;;9.10;99.90;;;;;;5012628;28;20398;-78
2023/12/21 00:04:06;;;;;;;2.05;1.13;;;9.10;99.90;;;;;;5035954;28;20090;-78
2023/12/21 00:06:32;;;;;;;2.72;0.77;;;9.20;99.90;;;;;;5038139;28;20046;-77
2023/12/21 00:08:58;;;;;;;4.85;0.98;;;9.10;99.90;;;;;;5015893;28;20062;-78
2023/12/21 00:11:23;;;;;;;4.43;1.50;;;9.10;99.90;;;;;;5016403;28;20052;-78
2023/12/21 00:13:49;;;;;;;2.42;1.50;;;9.20;99.90;;;;;;5016031;28;20054;-78
2023/12/21 00:16:16;;;;;;;6.85;1.33;;;9.20;99.90;;;;;;5016114;28;20058;-78
2023/12/21 00:18:42;;;;;;;7.32;1.60;;;9.20;99.90;;;;;;5015078;28;20097;-78
2023/12/21 00:21:08;;;;;;;9.38;1.95;;;9.20;99.90;;;;;;5013246;28;20565;-78
2023/12/21 00:23:34;;;;;;;6.57;1.70;;;9.10;99.90;;;;;;5016420;28;20058;-78
2023/12/21 00:26:00;;;;;;;4.95;1.27;;;9.20;99.90;;;;;;5015513;28;20109;-78
2023/12/21 00:28:26;;;;;;;1.88;1.13;;;9.10;99.90;;;;;;5016210;28;20077;-78
2023/12/21 00:30:52;;;;;;;6.55;1.33;;;9.20;99.90;;;;;;4999479;28;20050;-78
2023/12/21 00:33:17;;;;;;;5.32;1.73;;;9.20;99.90;;;;;;4999814;28;20068;-78
2023/12/21 00:35:43;;;;;;;2.38;1.23;;;9.20;99.90;;;;;;4999520;28;20046;-78
2023/12/21 00:38:09;;;;;;;5.43;1.42;;;9.20;99.90;;;;;;5014806;28;20038;-78
2023/12/21 00:40:34;;;;;;;9.27;1.77;;;9.20;99.90;;;;;;4980541;28;20051;-78
2023/12/21 00:43:00;;;;;;;8.95;1.75;;;9.20;99.90;;;;;;4997466;28;20056;-79
2023/12/21 00:45:26;;;;;;;5.65;0.82;;;9.20;99.90;;;;;;5016580;28;20140;-79
2023/12/21 00:47:52;;;;;;;9.52;1.27;;;9.20;99.90;;;;;;5014694;28;20050;-79
2023/12/21 00:50:18;;;;;;;4.22;1.15;;;9.20;99.90;;;;;;5032425;28;20046;-79
2023/12/21 00:52:43;;;;;;;12.30;1.55;;;9.20;99.90;;;;;;5009977;28;20087;-79
2023/12/21 00:55:09;;;;;;;3.53;1.23;;;9.20;99.90;;;;;;4980974;28;20045;-79
2023/12/21 00:57:35;;;;;;;5.13;1.17;;;9.20;99.90;;;;;;5009486;28;20077;-79
2023/12/21 01:00:01;;;;;;;4.93;2.53;;;9.20;99.90;;;;;;5007856;28;20038;-79
2023/12/21 01:02:26;;;;;;;8.32;1.15;;;9.20;99.90;;;;;;4994115;28;20046;-79
2023/12/21 01:04:52;;;;;;;3.78;1.23;;;9.20;99.90;;;;;;4976404;28;20066;-79
2023/12/21 01:07:18;;;;;;;8.75;1.15;;;9.30;99.90;;;;;;4992696;28;20133;-79
2023/12/21 01:09:43;;;;;;;5.45;1.33;;;9.30;99.90;;;;;;5008531;28;20042;-79
2023/12/21 01:12:09;;;;;;;7.65;1.60;;;9.30;99.90;;;;;;5007610;28;20612;-79
2023/12/21 01:14:35;;;;;;;4.15;1.00;;;9.20;99.90;;;;;;5008339;28;20085;-79
2023/12/21 01:17:01;;;;;;;6.13;1.33;;;9.20;99.90;;;;;;4991282;28;20052;-80
2023/12/21 01:19:27;;;;;;;7.25;1.67;;;9.20;99.90;;;;;;5009594;28;20046;-80
2023/12/21 01:21:53;;;;;;;8.18;1.40;;;9.30;99.90;;;;;;5007979;28;20046;-80
2023/12/21 01:24:19;;;;;;;6.57;1.02;;;9.30;99.90;;;;;;4993705;28;20121;-79
2023/12/21 01:26:44;;;;;;;9.02;1.83;;;9.30;99.90;;;;;;5023692;28;20042;-79
2023/12/21 01:29:10;;;;;;;5.88;1.95;;;9.30;99.90;;;;;;4974854;28;20132;-80
2023/12/21 01:31:36;;;;;;;5.13;1.27;;;9.30;99.90;;;;;;5015852;28;20052;-80
2023/12/21 01:34:02;;;;;;;5.18;1.10;;;9.30;99.90;;;;;;4998331;28;20113;-80
2023/12/21 01:36:28;;;;;;;7.63;1.23;;;9.30;99.90;;;;;;5015262;28;20089;-80
2023/12/21 01:38:54;;;;;;;8.68;1.25;;;9.30;99.90;;;;;;4998859;28;20486;-80
2023/12/21 01:41:20;;;;;;;5.53;1.30;;;9.30;99.90;;;;;;5012748;28;20060;-79
2023/12/21 01:43:46;;;;;;;9.48;1.23;;;9.30;99.90;;;;;;5011434;28;20502;-80
2023/12/21 01:46:11;;;;;;;5.35;1.52;;;9.30;99.90;;;;;;4993831;28;20049;-80
2023/12/21 01:48:39;;;;;;;6.20;1.67;;;9.30;99.90;;;;;;5009489;28;20060;-81
2023/12/21 01:51:05;;;;;;;6.80;1.40;;;9.30;99.90;;;;;;5009840;28;20101;-80
2023/12/21 01:53:32;;;;;;;5.38;1.45;;;9.30;99.90;;;;;;4978913;28;20050;-81
2023/12/21 01:55:59;;;;;;;5.28;1.35;;;9.30;99.90;;;;;;5008209;28;20054;-80
2023/12/21 01:58:24;;;;;;;4.97;1.55;;;9.30;99.90;;;;;;5011468;28;20137;-80
2023/12/21 02:00:50;;;;;;;3.97;1.65;;;9.20;99.90;;;;;;5006877;28;20069;-80
2023/12/21 02:03:16;;;;;;;2.45;1.00;;;9.30;99.90;;;;;;5076097;28;20412;-80
2023/12/21 02:05:42;;;;;;;6.30;1.00;;;9.20;99.90;;;;;;5009126;28;20057;-80
2023/12/21 02:08:08;;;;;;;7.43;1.15;;;9.30;99.90;;;;;;5059342;28;20113;-80
2023/12/21 02:10:35;;;;;;;3.25;1.00;;;9.20;99.90;;;;;;4997211;28;20463;-80
2023/12/21 02:13:00;;;;;;;4.65;0.95;;;9.30;99.90;;;;;;4997367;28;20086;-80
2023/12/21 02:15:26;;;;;;;3.55;1.00;;;9.20;99.90;;;;;;5016231;28;20073;-80
2023/12/21 02:17:54;;;;;;;7.65;1.25;;;9.30;99.90;;;;;;5013657;28;20083;-80
2023/12/21 02:20:20;;;;;;;4.38;0.75;;;9.20;99.90;;;;;;5016153;28;20622;-81
2023/12/21 02:22:49;;;;;;;3.65;0.70;;;9.20;99.90;;;;;;5014381;28;20105;-81
2023/12/21 02:25:15;;;;;;;4.38;0.85;;;9.20;99.90;;;;;;5013845;28;20065;-81
2023/12/21 02:27:41;;;;;;;4.25;0.90;;;9.20;99.90;;;;;;5014618;28;20076;-80
2023/12/21 02:30:07;;;;;;;7.13;1.30;;;9.20;99.90;;;;;;5013623;28;20042;-80
2023/12/21 02:32:33;;;;;;;2.55;1.65;;;9.20;99.90;;;;;;5016018;28;20681;-80
2023/12/21 02:34:58;;;;;;;2.88;0.98;;;9.30;99.90;;;;;;5079808;28;20046;-80
2023/12/21 02:37:24;;;;;;;7.55;1.17;;;9.20;99.90;;;;;;5014442;28;20050;-80
2023/12/21 02:39:50;;;;;;;9.70;1.30;;;9.20;99.90;;;;;;5013955;28;20041;-80
2023/12/21 02:42:15;;;;;;;4.93;1.38;;;9.10;99.90;;;;;;5005069;28;20094;-80
2023/12/21 02:44:41;;;;;;;7.65;1.15;;;9.10;99.90;;;;;;4991807;28;20050;-79
2023/12/21 02:47:07;;;;;;;10.43;1.30;;;9.10;99.90;;;;;;4973390;28;20054;-80
2023/12/21 02:49:32;;;;;;;15.30;1.33;;;9.10;99.90;;;;;;5009949;28;20042;-81
2023/12/21 02:51:58;;;;;;;11.40;1.23;;;9.10;99.90;;;;;;5006701;28;20090;-79
2023/12/21 02:54:24;;;;;;;7.93;1.35;;;9.10;99.90;;;;;;5009151;28;20049;-79
2023/12/21 02:56:50;;;;;;;6.97;1.10;;;9.10;99.90;;;;;;4992210;28;20053;-79
2023/12/21 02:59:15;;;;;;;5.82;1.42;;;9.10;99.90;;;;;;4990945;28;20050;-79
2023/12/21 03:01:42;;;;;;;9.63;1.15;;;9.00;99.90;;;;;;5008282;28;20042;-79
2023/12/21 03:04:09;;;;;;;6.30;1.70;;;9.00;99.90;;;;;;5006727;28;20049;-79
2023/12/21 03:06:35;;;;;;;8.73;1.83;;;9.00;99.90;;;;;;4991205;28;20121;-79
2023/12/21 03:09:01;;;;;;;5.20;1.50;;;9.00;99.90;;;;;;5006444;28;20077;-79
2023/12/21 03:11:26;;;;;;;4.30;1.08;;;9.00;99.90;;;;;;5014280;28;20070;-79
2023/12/21 03:13:52;;;;;;;4.60;1.25;;;9.00;99.90;;;;;;5009646;28;20098;-78
2023/12/21 03:16:18;;;;;;;0.82;0.82;;;9.10;99.90;;;;;;5023063;28;20072;-78
2023/12/21 03:18:46;;;;;;;3.05;1.20;;;9.10;99.90;;;;;;5007488;28;20050;-77
2023/12/21 03:21:12;;;;;;;3.88;1.30;;;9.10;99.90;;;;;;5011407;28;20081;-78
2023/12/21 03:23:40;;;;;;;8.63;1.48;;;9.10;99.90;;;;;;5012108;28;20109;-77
2023/12/21 03:26:07;;;;;;;3.55;1.13;;;9.00;99.90;;;;;;5010640;28;20034;-78
2023/12/21 03:28:33;;;;;;;5.63;1.02;;;9.10;99.90;;;;;;4997425;28;20073;-78
2023/12/21 03:31:00;;;;;;;5.55;1.67;;;9.00;99.90;;;;;;5010471;28;20098;-77
2023/12/21 03:33:26;;;;;;;1.17;0.77;;;9.00;99.90;;;;;;4978697;28;20102;-78
2023/12/21 03:35:51;;;;;;;2.38;0.98;;;9.10;99.90;;;;;;5011931;28;20073;-78
2023/12/21 03:38:17;;;;;;;6.78;1.48;;;9.10;99.90;;;;;;4993738;28;20085;-78
2023/12/21 03:40:43;;;;;;;4.10;1.23;;;9.10;99.90;;;;;;5013273;28;20049;-78
2023/12/21 03:43:08;;;;;;;10.55;1.92;;;9.10;99.90;;;;;;5036243;28;20052;-78
2023/12/21 03:45:39;;;;;;;1.60;1.20;;;9.10;99.90;;;;;;4997620;28;20045;-78
2023/12/21 03:48:08;;;;;;;2.13;1.00;;;9.10;99.90;;;;;;5010842;28;20071;-78
2023/12/21 03:50:34;;;;;;;5.88;1.33;;;9.10;99.90;;;;;;5012572;28;20054;-78
2023/12/21 03:53:00;;;;;;;9.40;1.33;;;9.10;99.90;;;;;;5012447;28;20053;-78
2023/12/21 03:55:26;;;;;;;5.38;1.38;;;9.20;99.90;;;;;;5008426;28;20046;-78
2023/12/21 03:57:51;;;;;;;1.42;1.20;;;9.10;99.90;;;;;;5010831;28;20034;-78
2023/12/21 04:00:20;;;;;;;5.38;1.50;;;9.20;99.90;;;;;;5008531;28;20071;-78
2023/12/21 04:02:46;;;;;;;2.40;0.75;;;9.10;99.90;;;;;;5013717;28;20073;-78
2023/12/21 04:05:11;;;;;;;8.07;2.08;;;9.20;99.90;;;;;;5008446;28;20081;-78
2023/12/21 04:07:37;;;;;;;2.30;1.02;;;9.20;99.90;;;;;;5010937;28;20042;-78
2023/12/21 04:10:03;;;;;;;3.05;1.00;;;9.20;99.90;;;;;;5010647;28;20080;-78
2023/12/21 04:12:29;;;;;;;5.68;1.27;;;9.20;99.90;;;;;;5010074;28;20118;-78
2023/12/21 04:14:56;;;;;;;3.47;1.17;;;9.10;99.90;;;;;;5011639;28;20077;-78
2023/12/21 04:17:21;;;;;;;3.45;0.70;;;9.20;99.90;;;;;;5009245;28;20041;-79
2023/12/21 04:19:47;;;;;;;4.95;2.00;;;9.10;99.90;;;;;;5010520;28;20211;-78
2023/12/21 04:22:13;;;;;;;3.20;1.40;;;9.10;99.90;;;;;;4994008;28;20106;-78
2023/12/21 04:24:40;;;;;;;7.22;1.48;;;9.10;99.90;;;;;;5011067;28;20053;-78
2023/12/21 04:27:06;;;;;;;6.18;1.10;;;9.10;99.90;;;;;;5010231;28;20076;-78
2023/12/21 04:29:31;;;;;;;7.03;2.17;;;9.10;99.90;;;;;;5008913;28;20046;-78
2023/12/21 04:31:57;;;;;;;3.08;0.93;;;9.10;99.90;;;;;;5009892;28;20045;-79
2023/12/21 04:34:23;;;;;;;4.68;1.15;;;9.10;99.90;;;;;;4992836;28;20095;-78
2023/12/21 04:36:48;;;;;;;2.28;1.00;;;9.10;99.90;;;;;;5081055;28;20050;-79
2023/12/21 04:39:14;;;;;;;4.85;1.30;;;9.10;99.90;;;;;;5008377;28;20539;-78
2023/12/21 04:41:40;;;;;;;0.77;0.65;;;9.10;99.90;;;;;;5011391;28;20042;-78
2023/12/21 04:44:07;;;;;;;6.05;1.50;;;9.10;99.90;;;;;;5013844;28;20042;-78
2023/12/21 04:46:32;;;;;;;1.63;1.35;;;9.10;99.90;;;;;;5084532;28;20078;-78
2023/12/21 04:48:58;;;;;;;8.30;1.23;;;9.10;99.90;;;;;;5016220;28;20056;-78
2023/12/21 04:51:24;;;;;;;4.82;0.75;;;9.10;99.90;;;;;;5014569;28;20052;-78
2023/12/21 04:53:50;;;;;;;2.78;1.17;;;9.10;99.90;;;;;;5016627;28;20048;-78
2023/12/21 04:56:15;;;;;;;5.57;1.73;;;9.10;99.90;;;;;;5014174;28;20046;-78
2023/12/21 04:58:42;;;;;;;8.57;1.80;;;9.10;99.90;;;;;;5016175;28;20049;-78
2023/12/21 05:01:08;;;;;;;2.78;1.10;;;9.10;99.90;;;;;;5016481;28;20070;-78
2023/12/21 05:03:34;;;;;;;6.88;1.73;;;9.20;99.90;;;;;;4999184;28;20077;-78
2023/12/21 05:06:00;;;;;;;3.03;1.45;;;9.20;99.90;;;;;;4999520;28;20056;-77
2023/12/21 05:08:26;;;;;;;3.47;1.80;;;9.20;99.90;;;;;;5014194;28;20077;-77
2023/12/21 05:10:51;;;;;;;3.50;1.17;;;9.20;99.90;;;;;;5015588;28;20049;-77
2023/12/21 05:13:18;;;;;;;3.35;1.55;;;9.20;99.90;;;;;;5014355;28;20053;-77
2023/12/21 05:15:43;;;;;;;6.82;1.13;;;9.20;99.90;;;;;;5016222;28;20082;-77
2023/12/21 05:18:09;;;;;;;5.93;0.90;;;9.20;99.90;;;;;;5016555;28;20132;-77
2023/12/21 05:20:35;;;;;;;2.28;1.27;;;9.20;99.90;;;;;;5014909;28;20060;-76
2023/12/21 05:23:00;;;;;;;5.32;1.45;;;9.20;99.90;;;;;;5010343;28;20101;-77
2023/12/21 05:25:26;;;;;;;4.18;1.13;;;9.20;99.90;;;;;;5008982;28;20038;-76
2023/12/21 05:27:52;;;;;;;5.00;1.17;;;9.20;99.90;;;;;;4977967;28;20049;-76
2023/12/21 05:30:18;;;;;;;1.88;0.95;;;9.20;99.90;;;;;;5009242;28;20065;-76
2023/12/21 05:32:44;;;;;;;1.88;0.63;;;9.20;99.90;;;;;;5008956;28;20050;-77
2023/12/21 05:35:10;;;;;;;0.73;0.70;;;9.20;99.90;;;;;;4993619;28;20041;-76
2023/12/21 05:37:36;;;;;;;4.90;0.90;;;9.20;99.90;;;;;;4994318;28;20042;-76
2023/12/21 05:40:02;;;;;;;3.53;0.90;;;9.20;99.90;;;;;;5009443;28;20096;-76
2023/12/21 05:42:28;;;;;;;3.03;0.90;;;9.20;99.90;;;;;;5008885;28;20049;-76
2023/12/21 05:44:54;;;;;;;5.07;1.08;;;9.20;99.90;;;;;;5018800;28;20038;-76
2023/12/21 05:47:20;;;;;;;4.43;0.73;;;9.20;99.90;;;;;;5010395;28;20064;-76
2023/12/21 05:49:46;;;;;;;6.03;0.75;;;9.20;99.90;;;;;;5013216;28;20046;-76
2023/12/21 05:52:12;;;;;;;2.83;0.82;;;9.30;99.90;;;;;;5008747;28;20045;-76
2023/12/21 05:54:38;;;;;;;10.13;0.90;;;9.30;99.90;;;;;;5010683;28;20042;-76
2023/12/21 05:57:05;;;;;;;2.22;0.63;;;9.30;99.90;;;;;;5009432;28;20088;-77
2023/12/21 05:59:31;;;;;;;2.60;0.90;;;9.30;99.90;;;;;;5010423;28;20042;-76
2023/12/21 06:01:56;;;;;;;4.45;0.55;;;9.40;99.90;;;;;;5008123;28;20509;-77
2023/12/21 06:04:22;;;;;;;4.18;1.10;;;9.40;99.90;;;;;;4992840;28;20060;-77
2023/12/21 06:06:48;;;;;;;11.60;1.02;;;9.40;99.90;;;;;;5009470;28;20105;-76
2023/12/21 06:09:14;;;;;;;4.53;0.80;;;9.40;99.90;;;;;;5007003;28;20077;-76
2023/12/21 06:11:40;;;;;;;3.08;1.08;;;9.40;99.90;;;;;;4997433;28;20490;-76
2023/12/21 06:14:06;;;;;;;0.68;0.68;;;9.30;99.90;;;;;;5014612;28;20056;-76
2023/12/21 06:16:32;;;;;;;9.10;1.05;;;9.40;99.90;;;;;;5013185;28;20042;-76
2023/12/21 06:18:59;;;;;;;3.75;0.65;;;9.40;99.90;;;;;;5014231;28;20053;-77
2023/12/21 06:21:25;;;;;;;1.17;0.55;;;9.40;99.90;;;;;;5013207;28;20058;-77
2023/12/21 06:23:51;;;;;;;5.13;1.13;;;9.40;99.90;;;;;;4998986;28;20046;-77
2023/12/21 06:26:17;;;;;;;7.25;0.95;;;9.40;99.90;;;;;;5013493;28;20430;-77
2023/12/21 06:28:42;;;;;;;2.65;0.90;;;9.40;99.90;;;;;;4997626;28;20038;-77
2023/12/21 06:31:13;;;;;;;0.60;0.50;;;9.40;99.90;;;;;;5015854;28;20046;-77
2023/12/21 06:33:39;;;;;;;5.40;1.00;;;9.40;99.90;;;;;;5013754;28;20486;-78
2023/12/21 06:36:05;;;;;;;4.53;0.90;;;9.40;99.90;;;;;;5014552;28;20072;-78
2023/12/21 06:38:30;;;;;;;0.93;0.50;;;9.40;99.90;;;;;;5012974;28;20105;-78
2023/12/21 06:40:56;;;;;;;8.52;0.93;;;9.40;99.90;;;;;;5013964;28;20073;-78
2023/12/21 06:43:23;;;;;;;5.20;0.90;;;9.40;99.90;;;;;;5008429;28;20053;-78
2023/12/21 06:45:49;;;;;;;15.15;1.23;;;9.40;99.90;;;;;;5007385;28;20042;-78
2023/12/21 06:48:15;;;;;;;2.75;1.02;;;9.50;99.90;;;;;;5006059;28;20643;-77
2023/12/21 06:50:41;;;;;;;12.60;1.40;;;9.40;99.90;;;;;;5024121;28;20041;-77
2023/12/21 06:53:07;;;;;;;1.80;0.98;;;9.40;99.90;;;;;;4983278;28;20401;-77
2023/12/21 06:55:32;;;;;;;2.47;1.33;;;9.40;99.90;;;;;;5011407;28;20046;-77
2023/12/21 06:57:58;;;;;;;7.18;1.00;;;9.40;99.90;;;;;;4996271;28;20115;-77
2023/12/21 07:00:24;;;;;;;1.05;0.80;;;9.40;99.90;;;;;;5011260;28;20068;-77
2023/12/21 07:02:50;;;;;;;6.60;1.20;;;9.40;99.90;;;;;;5016621;28;20042;-77
2023/12/21 07:05:15;;;;;;;0.75;0.75;;;9.40;99.90;;;;;;5009670;28;20038;-77
2023/12/21 07:07:41;;;;;;;5.85;0.82;;;9.40;99.90;;;;;;5010133;28;20545;-77
2023/12/21 07:10:07;;;;;;;1.63;1.00;;;9.40;99.90;;;;;;5010541;28;20479;-76
2023/12/21 07:12:33;;;;;;;2.92;0.57;;;9.40;99.90;;;;;;4992287;28;20042;-75
2023/12/21 07:14:59;;;;;;;0.35;0.35;;;9.40;99.90;;;;;;5012791;28;20072;-75
2023/12/21 07:17:24;;;;;;;4.30;1.25;;;9.40;99.90;;;;;;5010199;28;20105;-75
2023/12/21 07:19:50;;;;;;;2.55;0.75;;;9.30;99.90;;;;;;5011843;28;20056;-75
2023/12/21 07:22:16;;;;;;;7.57;1.33;;;9.30;99.90;;;;;;5009474;28;20058;-75
2023/12/21 07:24:42;;;;;;;6.28;0.60;;;9.30;99.90;;;;;;5014265;28;20075;-76
2023/12/21 07:27:07;;;;;;;2.00;1.00;;;9.30;99.90;;;;;;4995003;28;20174;-75
2023/12/21 07:29:33;;;;;;;2.17;0.82;;;9.30;99.90;;;;;;5009982;28;20045;-75
2023/12/21 07:31:59;;;;;;;2.85;1.17;;;9.30;99.90;;;;;;4995991;28;20045;-75
2023/12/21 07:34:25;;;;;;;1.38;0.90;;;9.30;99.90;;;;;;4993463;28;20060;-74
2023/12/21 07:36:50;;;;;;;2.88;0.90;;;9.40;99.90;;;;;;5000196;28;20050;-74
2023/12/21 07:39:16;;;;;;;2.30;0.52;;;9.30;99.90;;;;;;5014546;28;20045;-73
2023/12/21 07:41:42;;;;;;;2.20;0.85;;;9.40;99.90;;;;;;5009216;28;20133;-73
2023/12/21 07:44:07;;;;;;;4.30;0.68;;;9.40;99.90;;;;;;5015420;28;20038;-73
2023/12/21 07:46:33;;;;;;;4.18;1.60;;;9.40;99.90;;;;;;5008708;28;20038;-73
2023/12/21 07:48:59;;;;;;;0.63;0.38;;;9.40;99.90;;;;;;5011576;28;20034;-73
2023/12/21 07:51:24;;;;;;;4.40;1.45;;;9.40;99.90;;;;;;4993688;28;20046;-73
2023/12/21 07:53:50;;;;;;;6.20;0.88;;;9.40;99.90;;;;;;4996440;28;20077;-73
2023/12/21 07:56:16;;;;;;;3.60;1.02;;;9.40;99.90;;;;;;5013174;28;20038;-73
2023/12/21 07:58:42;;;;;;;5.40;1.00;;;9.40;99.90;;;;;;5015500;28;20052;-73
2023/12/21 08:01:07;;;;;;;1.58;0.60;;;9.40;99.90;;;;;;5016310;28;20151;-74
2023/12/21 08:03:33;;;;;;;1.20;0.55;;;9.40;99.90;;;;;;5016591;28;20154;-74
2023/12/21 08:05:59;;;;;;;0.98;0.68;;;9.40;99.90;;;;;;5015126;28;20046;-73
2023/12/21 08:08:25;;;;;;;1.48;0.60;;;9.40;99.90;;;;;;5013697;28;20109;-74
2023/12/21 08:10:50;;;;;;;0.50;0.40;;;9.40;99.90;;;;;;5011330;28;20058;-73
2023/12/21 08:13:16;;;;;;;0.50;0.30;;;9.40;99.90;;;;;;5007937;28;20034;-74
2023/12/21 08:15:42;;;;;;;0.50;0.43;;;9.40;99.90;;;;;;5010700;28;20045;-73
2023/12/21 08:18:10;;;;;;;2.95;0.40;;;9.40;99.90;;;;;;5011342;28;20046;-73
2023/12/21 08:20:36;;;;;;;0.77;0.57;;;9.40;99.90;;;;;;5010088;28;20038;-74
2023/12/21 08:23:03;;;;;;;3.45;0.68;;;9.40;99.90;;;;;;5010879;28;20057;-74
2023/12/21 08:25:32;;;;;;;0.52;0.28;;;9.40;99.90;;;;;;5007578;28;20042;-74
2023/12/21 08:27:58;;;;;;;1.63;0.60;;;9.40;99.90;;;;;;4991184;28;20046;-73
2023/12/21 08:30:23;;;;;;;8.10;0.60;;;9.40;99.90;;;;;;5013497;28;20064;-73
2023/12/21 08:32:52;;;;;;;0.30;0.30;;;9.40;99.90;;;;;;4981359;28;20041;-73
2023/12/21 08:35:18;;;;;;;1.08;0.30;;;9.40;99.90;;;;;;5009635;28;20054;-74
2023/12/21 08:37:43;;;;;;;0.75;0.38;;;9.50;99.90;;;;;;4993061;28;20035;-74
2023/12/21 08:40:10;;;;;;;0.73;0.43;;;9.50;99.90;;;;;;5012172;28;20050;-74
2023/12/21 08:42:36;;;;;;;0.35;0.28;;;9.50;99.90;;;;;;5014278;28;20091;-74
2023/12/21 08:45:05;;;;;;;0.77;0.15;;;9.50;99.90;;;;;;5010430;28;20549;-74
2023/12/21 08:47:38;;;;;;;0.47;0.47;;;9.50;99.90;;;;;;5007881;28;20498;-74
2023/12/21 08:50:04;;;;;;;1.80;0.70;;;9.50;99.90;;;;;;5012677;28;20490;-74
2023/12/21 08:52:30;;;;;;;0.82;0.57;;;9.50;99.90;;;;;;5004358;28;20062;-73
2023/12/21 08:54:55;;;;;;;0.80;0.57;;;9.60;99.90;;;;;;5015557;28;20054;-74
2023/12/21 08:57:22;;;;;;;6.00;0.47;;;9.50;99.90;;;;;;5015575;28;20046;-73
2023/12/21 08:59:48;;;;;;;3.50;0.88;;;9.60;99.90;;;;;;5005867;28;20046;-73
2023/12/21 09:02:17;;;;;;;0.70;0.32;;;9.60;99.90;;;;;;4994585;28;20062;-74
2023/12/21 09:04:42;;;;;;;4.15;0.82;;;9.60;99.90;;;;;;4995850;28;20056;-74
2023/12/21 09:07:08;;;;;;;6.30;0.40;;;9.70;99.90;;;;;;5015726;28;20073;-74
2023/12/21 09:09:34;;;;;;;0.65;0.65;;;9.70;99.90;;;;;;5014515;28;20041;-73
2023/12/21 09:12:00;;;;;;;3.83;0.88;;;9.70;99.90;;;;;;5011613;28;20057;-74
2023/12/21 09:14:26;;;;;;;4.68;0.75;;;9.70;99.90;;;;;;5009266;28;20042;-74
2023/12/21 09:16:51;;;;;;;1.85;0.40;;;9.70;99.90;;;;;;5009615;28;20078;-73
2023/12/21 09:19:17;;;;;;;2.83;0.77;;;9.80;99.90;;;;;;4993448;28;20073;-73
2023/12/21 09:21:43;;;;;;;4.25;0.65;;;9.70;99.90;;;;;;5006672;28;20066;-73
2023/12/21 09:24:09;;;;;;;6.03;0.65;;;9.70;99.90;;;;;;4993182;28;20107;-74
2023/12/21 09:26:34;;;;;;;6.95;0.88;;;9.70;99.90;;;;;;5014781;28;20038;-73
2023/12/21 09:29:04;;;;;;;1.02;0.30;;;9.70;99.90;;;;;;5015498;28;20050;-73
2023/12/21 09:31:31;;;;;;;5.95;1.00;;;9.70;99.90;;;;;;5013846;28;20042;-73
2023/12/21 09:33:56;;;;;;;2.90;0.38;;;9.70;99.90;;;;;;4995900;28;20038;-75
2023/12/21 09:36:23;;;;;;;5.72;0.93;;;9.70;99.90;;;;;;5013759;28;20057;-74
2023/12/21 09:38:49;;;;;;;0.52;0.32;;;9.80;99.90;;;;;;5010396;28;20137;-73
2023/12/21 09:41:15;;;;;;;0.85;0.40;;;9.80;99.90;;;;;;5009206;28;20073;-73
2023/12/21 09:43:41;;;;;;;5.00;0.65;;;9.80;99.90;;;;;;5009460;28;20076;-72
2023/12/21 09:46:08;;;;;;;0.40;0.20;;;9.80;99.90;;;;;;5014928;28;20042;-72
2023/12/21 09:48:37;;;;;;;2.40;1.00;;;9.80;99.90;;;;;;4998963;28;20042;-73
2023/12/21 09:51:05;;;;;;;5.55;0.63;;;9.80;99.90;;;;;;5014084;28;20061;-73
2023/12/21 09:53:33;;;;;;;3.00;0.82;;;9.80;99.90;;;;;;5014393;28;20046;-73
2023/12/21 09:56:00;;;;;;;1.52;0.50;;;9.90;99.90;;;;;;5013777;28;20069;-73
2023/12/21 09:58:25;;;;;;;1.80;0.40;;;9.90;99.90;;;;;;5015659;28;20115;-72
2023/12/21 10:00:51;;;;;;;1.65;0.47;;;9.90;99.90;;;;;;5015716;28;20506;-72
2023/12/21 10:03:18;;;;;;;2.20;0.88;;;9.90;99.90;;;;;;4993143;28;20046;-73
2023/12/21 10:05:44;;;;;;;9.70;0.85;;;9.90;99.90;;;;;;5014549;28;20600;-72
2023/12/21 10:08:09;;;;;;;4.57;0.82;;;10.00;99.90;;;;;;5013337;28;20056;-73
2023/12/21 10:10:38;;;;;;;2.53;0.63;;;10.00;99.90;;;;;;5014215;28;20053;-73
2023/12/21 10:13:04;;;;;;;0.98;0.47;;;10.10;99.90;;;;;;5012640;28;20041;-73
2023/12/21 10:15:33;;;;;;;7.95;0.98;;;10.20;99.90;;;;;;5008682;28;20102;-73
2023/12/21 10:17:59;;;;;;;2.65;0.55;;;10.20;99.90;;;;;;5011882;28;20053;-73
2023/12/21 10:20:26;;;;;;;1.67;0.60;;;10.30;99.90;;;;;;4994689;28;20058;-73
2023/12/21 10:22:52;;;;;;;4.78;0.50;;;10.30;99.90;;;;;;5012795;28;20050;-73
2023/12/21 10:25:21;;;;;;;2.70;0.45;;;10.30;99.90;;;;;;5010582;28;20570;-73
2023/12/21 10:27:57;;;;;;;1.08;0.30;;;10.30;99.90;;;;;;5014592;28;20054;-73
2023/12/21 10:30:25;;;;;;;10.38;1.05;;;10.40;99.90;;;;;;5014827;28;20077;-74
2023/12/21 10:32:55;;;;;;;7.47;0.95;;;10.40;99.90;;;;;;5015048;28;20038;-73
2023/12/21 10:35:22;;;;;;;3.28;0.88;;;10.50;99.90;;;;;;5012175;28;20050;-74
2023/12/21 10:37:49;;;;;;;5.40;0.60;;;10.50;99.90;;;;;;5012365;28;20430;-74
2023/12/21 10:40:15;;;;;;;1.00;0.50;;;10.60;99.90;;;;;;4993315;28;20057;-73
2023/12/21 10:42:48;;;;;;;1.85;0.70;;;10.60;99.90;;;;;;5012777;28;20052;-74
2023/12/21 10:45:16;;;;;;;3.50;1.13;;;10.60;99.90;;;;;;5004160;28;20054;-74
2023/12/21 10:47:58;;;;;;;2.85;0.63;;;10.60;99.90;;;;;;5009157;28;20042;-74
2023/12/21 10:50:24;;;;;;;;;;;10.60;99.90;;;;;;4986149;28;20050;-74
2023/12/21 10:52:51;;;;;;;0.77;0.47;;;10.70;99.90;;;;;;5011391;28;19921;-74
2023/12/21 10:55:17;;;;;;;4.20;0.38;;;10.70;99.90;;;;;;5009252;28;20053;-74
2023/12/21 10:57:45;;;;;;;4.03;1.02;;;10.60;99.90;;;;;;5005576;28;20045;-74
2023/12/21 11:00:15;;;;;;;7.00;0.50;;;10.70;99.90;;;;;;5013049;28;20057;-75
2023/12/21 11:02:44;;;;;;;10.50;0.68;;;10.70;99.90;;;;;;5013941;28;20061;-74
2023/12/21 11:05:10;;;;;;;4.45;1.95;;;10.70;99.90;;;;;;4999572;28;20042;-74
2023/12/21 11:07:37;;;;;;;5.18;1.20;;;10.70;99.90;;;;;;4992606;28;20048;-75
2023/12/21 11:10:05;;;;;;;4.22;0.55;;;10.70;99.90;;;;;;5014061;28;20049;-75
2023/12/21 11:12:31;;;;;;;6.97;1.15;;;10.70;99.90;;;;;;5012875;28;20046;-75
2023/12/21 11:14:57;;;;;;;2.40;0.50;;;10.70;99.90;;;;;;5014283;28;20060;-75
2023/12/21 11:17:24;;;;;;;4.28;0.60;;;10.70;99.90;;;;;;5011570;28;20538;-75
2023/12/21 11:19:51;;;;;;;15.23;1.52;;;10.70;99.90;;;;;;5010333;28;20039;-77
2023/12/21 11:22:18;;;;;;;8.82;0.75;;;10.80;99.90;;;;;;5011898;28;20054;-75
2023/12/21 11:24:44;;;;;;;12.00;0.90;;;10.80;99.90;;;;;;4996770;28;20050;-74
2023/12/21 11:27:11;;;;;;;3.63;0.95;;;10.80;99.90;;;;;;5012487;28;20361;-75
2023/12/21 11:29:39;;;;;;;15.18;1.65;;;10.90;99.90;;;;;;4988669;28;20054;-75
2023/12/21 11:32:06;;;;;;;4.70;0.93;;;10.80;99.90;;;;;;5013557;28;20042;-75
2023/12/21 11:34:37;;;;;;;6.65;0.85;;;10.80;99.90;;;;;;5011959;28;20077;-75
2023/12/21 11:37:27;;;;;;;5.00;0.88;;;10.80;99.90;;;;;;4998915;28;20109;-75
2023/12/21 11:39:59;;;;;;;10.75;0.88;;;10.80;99.90;;;;;;4976106;28;20050;-75
2023/12/21 11:42:37;;;;;;;5.35;1.55;;;10.80;99.90;;;;;;4998269;28;20437;-75
2023/12/21 11:45:07;;;;;;;10.45;1.15;;;10.80;99.90;;;;;;4981770;28;20050;-75
2023/12/21 11:47:33;;;;;;;11.45;1.50;;;10.70;99.90;;;;;;4976187;28;20042;-75
2023/12/21 11:50:09;;;;;;;2.95;0.80;;;10.60;99.90;;;;;;4958454;28;20053;-75
2023/12/21 11:52:35;;;;;;;20.58;1.35;;;10.70;99.90;;;;;;5000424;28;20529;-75
2023/12/21 11:55:01;;;;;;;2.75;0.60;;;10.70;99.90;;;;;;4979999;28;20065;-75
2023/12/21 11:57:31;;;;;;;3.22;1.95;;;10.70;99.90;;;;;;4983064;28;20100;-75
2023/12/21 12:00:18;;;;;;;3.67;0.85;;;10.70;99.90;;;;;;4992516;28;20222;-75
2023/12/21 12:02:44;;;;;;;3.38;1.20;;;10.70;99.90;;;;;;5015789;28;20050;-75
2023/12/21 12:05:22;;;;;;;2.72;0.80;;;10.80;99.90;;;;;;4981486;28;21082;-75
2023/12/21 12:07:48;;;;;;;8.40;1.30;;;10.80;99.90;;;;;;4997564;28;20046;-75
2023/12/21 12:10:16;;;;;;;4.13;1.13;;;10.90;99.90;;;;;;5015243;28;20034;-75
2023/12/21 12:12:42;;;;;;;9.88;1.50;;;10.90;99.90;;;;;;4976450;28;20069;-75
2023/12/21 12:15:08;;;;;;;3.13;1.08;;;10.90;99.90;;;;;;4988403;28;20045;-76
2023/12/21 12:17:42;;;;;;;8.80;1.40;;;10.90;99.90;;;;;;4982744;28;20046;-76
2023/12/21 12:20:11;;;;;;;3.30;0.57;;;10.80;99.90;;;;;;5011733;28;20042;-75
2023/12/21 12:22:37;;;;;;;8.48;1.88;;;10.80;99.90;;;;;;4987363;28;20058;-74
2023/12/21 12:25:05;;;;;;;6.72;1.05;;;10.90;99.90;;;;;;4982577;28;20046;-75
2023/12/21 12:27:31;;;;;;;2.45;0.90;;;10.90;99.90;;;;;;4984106;28;20133;-74
2023/12/21 12:29:57;;;;;;;11.38;0.95;;;11.00;99.90;;;;;;4998654;28;20042;-75
2023/12/21 12:32:23;;;;;;;6.68;1.00;;;11.00;99.90;;;;;;4998778;28;20073;-75
2023/12/21 12:34:48;;;;;;;1.85;0.43;;;11.10;99.90;;;;;;4998407;28;20319;-74
2023/12/21 12:37:17;;;;;;;8.00;1.30;;;11.00;99.90;;;;;;5016274;28;20061;-75
2023/12/21 12:39:49;;;;;;;9.10;1.35;;;11.00;99.90;;;;;;4998118;28;20042;-74
2023/12/21 12:42:17;;;;;;;1.85;0.63;;;11.10;99.90;;;;;;4997421;28;20498;-75
2023/12/21 12:44:44;;;;;;;4.45;1.63;;;11.00;99.90;;;;;;4982726;28;20049;-75
2023/12/21 12:47:10;;;;;;;12.07;1.33;;;10.90;99.90;;;;;;5013589;28;20049;-74
2023/12/21 12:49:37;;;;;;;6.57;1.27;;;10.90;99.90;;;;;;5015179;28;20105;-74
2023/12/21 12:52:07;;;;;;;2.58;0.80;;;10.90;99.90;;;;;;4980933;28;20041;-74